createdAt,value
2023-02-19T00:01:12.203Z,11.00
2023-02-19T00:03:40.628Z,9.90
2023-02-19T00:06:09.196Z,11.60
2023-02-19T00:08:36.739Z,9.10
2023-02-19T00:11:12.152Z,14.90
2023-02-19T00:13:40.716Z,11.30
2023-02-19T00:16:14.166Z,10.80
2023-02-19T00:18:41.181Z,12.90
2023-02-19T00:21:08.156Z,9.20
2023-02-19T00:23:35.992Z,13.50
2023-02-19T00:26:17.704Z,12.50
2023-02-19T00:28:46.585Z,10.30
2023-02-19T00:31:18.143Z,11.20
2023-02-19T00:33:46.282Z,10.30
2023-02-19T00:36:13.437Z,14.50
2023-02-19T00:38:41.464Z,9.10
2023-02-19T00:41:20.735Z,8.40
2023-02-19T00:43:53.584Z,10.30
2023-02-19T00:46:24.107Z,10.20
2023-02-19T00:48:52.173Z,10.10
2023-02-19T00:51:20.022Z,14.90
2023-02-19T00:53:50.629Z,10.60
2023-02-19T00:56:17.518Z,9.70
2023-02-19T00:58:44.414Z,10.60
2023-02-19T01:01:11.733Z,13.20
2023-02-19T01:03:39.040Z,9.90
2023-02-19T01:06:08.015Z,9.90
2023-02-19T01:08:35.003Z,11.10
2023-02-19T01:11:04.602Z,12.10
2023-02-19T01:13:31.532Z,10.10
2023-02-19T01:16:06.648Z,13.40
2023-02-19T01:18:34.835Z,10.20
2023-02-19T01:21:06.677Z,7.60
2023-02-19T01:23:36.035Z,10.60
2023-02-19T01:26:07.246Z,11.80
2023-02-19T01:28:34.340Z,9.40
2023-02-19T01:31:05.443Z,16.60
2023-02-19T01:33:33.899Z,12.00
2023-02-19T01:36:03.674Z,8.50
2023-02-19T01:38:30.375Z,9.00
2023-02-19T01:41:02.109Z,10.60
2023-02-19T01:43:29.190Z,12.10
2023-02-19T01:45:56.023Z,7.90
2023-02-19T01:48:24.308Z,9.60
2023-02-19T01:50:57.416Z,9.50
2023-02-19T01:53:27.211Z,12.50
2023-02-19T01:55:56.000Z,11.80
2023-02-19T01:58:24.102Z,12.30
2023-02-19T02:00:51.575Z,10.10
2023-02-19T02:03:19.825Z,13.00
2023-02-19T02:05:56.493Z,11.20
2023-02-19T02:08:43.212Z,9.20
2023-02-19T02:11:10.476Z,10.20
2023-02-19T02:13:37.815Z,10.00
2023-02-19T02:16:19.789Z,12.90
2023-02-19T02:18:58.049Z,13.50
2023-02-19T02:21:50.132Z,9.30
2023-02-19T02:24:42.192Z,10.80
2023-02-19T02:27:27.911Z,11.40
2023-02-19T02:30:19.985Z,13.50
2023-02-19T02:33:00.462Z,11.30
2023-02-19T02:35:33.620Z,12.30
2023-02-19T02:38:04.615Z,11.10
2023-02-19T02:40:32.646Z,11.80
2023-02-19T02:43:00.744Z,11.60
2023-02-19T02:45:36.263Z,11.60
2023-02-19T02:48:53.329Z,12.80
2023-02-19T02:51:20.279Z,14.10
2023-02-19T02:54:31.200Z,9.10
2023-02-19T02:56:59.676Z,14.80
2023-02-19T02:59:32.211Z,11.50
2023-02-19T03:02:11.941Z,8.40
2023-02-19T03:05:20.691Z,10.00
2023-02-19T03:07:58.824Z,15.10
2023-02-19T03:10:36.404Z,9.10
2023-02-19T03:13:23.860Z,13.50
2023-02-19T03:16:13.419Z,11.30
2023-02-19T03:19:00.672Z,16.60
2023-02-19T03:21:28.096Z,13.60
2023-02-19T03:24:14.681Z,13.00
2023-02-19T03:26:41.467Z,10.40
2023-02-19T03:29:23.745Z,11.00
2023-02-19T03:32:04.862Z,10.40
2023-02-19T03:34:36.994Z,10.20
2023-02-19T03:37:24.664Z,16.90
2023-02-19T03:39:52.679Z,13.00
2023-02-19T03:42:36.936Z,13.30
2023-02-19T03:45:26.685Z,10.30
2023-02-19T03:48:10.307Z,12.20
2023-02-19T03:51:19.525Z,9.00
2023-02-19T03:53:52.616Z,12.90
2023-02-19T03:56:25.569Z,10.30
2023-02-19T03:59:09.835Z,14.50
2023-02-19T04:02:02.764Z,8.90
2023-02-19T04:04:44.017Z,10.30
2023-02-19T04:07:11.008Z,11.40
2023-02-19T04:09:41.141Z,10.90
2023-02-19T04:12:10.278Z,9.80
2023-02-19T04:14:42.608Z,12.30
2023-02-19T04:17:15.149Z,9.50
2023-02-19T04:19:44.073Z,11.20
2023-02-19T04:22:11.127Z,10.20
2023-02-19T04:24:51.947Z,11.00
2023-02-19T04:27:18.892Z,13.20
2023-02-19T04:29:45.850Z,9.90
2023-02-19T04:32:12.692Z,12.60
2023-02-19T04:34:39.589Z,14.80
2023-02-19T04:37:06.416Z,14.40
2023-02-19T04:39:33.477Z,11.00
2023-02-19T04:42:00.824Z,11.00
2023-02-19T04:44:28.060Z,11.40
2023-02-19T04:46:55.227Z,12.20
2023-02-19T04:49:22.069Z,12.10
2023-02-19T04:51:51.477Z,9.00
2023-02-19T04:54:18.320Z,11.90
2023-02-19T04:56:45.492Z,11.60
2023-02-19T04:59:12.554Z,10.40
2023-02-19T05:01:39.642Z,12.90
2023-02-19T05:04:06.566Z,11.30
2023-02-19T05:06:33.588Z,15.00
2023-02-19T05:09:00.407Z,11.90
2023-02-19T05:11:27.501Z,11.30
2023-02-19T05:13:59.529Z,9.20
2023-02-19T05:16:26.256Z,11.90
2023-02-19T05:18:53.010Z,14.10
2023-02-19T05:21:19.849Z,9.40
2023-02-19T05:23:46.604Z,11.90
2023-02-19T05:26:22.919Z,11.60
2023-02-19T05:28:51.651Z,9.90
2023-02-19T05:31:18.693Z,9.00
2023-02-19T05:33:49.637Z,10.20
2023-02-19T05:36:16.876Z,11.50
2023-02-19T05:38:43.938Z,9.60
2023-02-19T05:41:19.824Z,9.90
2023-02-19T05:43:47.562Z,10.20
2023-02-19T05:46:15.698Z,11.90
2023-02-19T05:48:43.200Z,9.60
2023-02-19T05:51:12.517Z,11.70
2023-02-19T05:53:40.131Z,11.50
2023-02-19T05:56:25.780Z,13.30
2023-02-19T05:58:53.725Z,12.10
2023-02-19T06:01:21.609Z,12.30
2023-02-19T06:03:48.568Z,14.80
2023-02-19T06:06:16.949Z,10.00
2023-02-19T06:08:45.394Z,10.30
2023-02-19T06:11:12.582Z,7.60
2023-02-19T06:13:39.720Z,8.60
2023-02-19T06:16:07.505Z,10.60
2023-02-19T06:18:34.560Z,11.80
2023-02-19T06:21:02.380Z,10.00
2023-02-19T06:23:29.775Z,10.00
2023-02-19T06:26:06.130Z,9.00
2023-02-19T06:28:32.973Z,9.70
2023-02-19T06:30:59.894Z,10.50
2023-02-19T06:33:27.666Z,9.90
2023-02-19T06:35:56.966Z,7.30
2023-02-19T06:38:24.116Z,9.20
2023-02-19T06:40:52.087Z,6.40
2023-02-19T06:43:19.443Z,9.70
2023-02-19T06:45:46.199Z,7.30
2023-02-19T06:48:13.133Z,8.60
2023-02-19T06:50:40.297Z,10.00
2023-02-19T06:53:08.567Z,9.00
2023-02-19T06:55:35.686Z,8.70
2023-02-19T06:58:07.478Z,7.80
2023-02-19T07:00:35.569Z,8.30
2023-02-19T07:03:06.838Z,9.30
2023-02-19T07:05:35.071Z,8.80
2023-02-19T07:08:01.938Z,8.40
2023-02-19T07:10:29.730Z,7.60
2023-02-19T07:12:56.806Z,9.80
2023-02-19T07:15:31.278Z,8.90
2023-02-19T07:17:58.862Z,10.30
2023-02-19T07:20:25.759Z,8.40
2023-02-19T07:22:53.632Z,10.80
2023-02-19T07:25:21.393Z,8.40
2023-02-19T07:27:48.458Z,8.30
2023-02-19T07:30:15.728Z,6.80
2023-02-19T07:32:44.836Z,8.80
2023-02-19T07:36:48.002Z,9.10
2023-02-19T07:39:15.500Z,10.30
2023-02-19T07:41:42.606Z,6.70
2023-02-19T07:44:13.034Z,7.40
2023-02-19T07:46:39.998Z,6.90
2023-02-19T07:49:07.348Z,7.50
2023-02-19T07:51:35.415Z,7.80
2023-02-19T07:54:03.925Z,7.20
2023-02-19T07:56:31.665Z,8.00
2023-02-19T07:58:59.973Z,8.70
2023-02-19T08:01:47.640Z,9.80
2023-02-19T08:04:14.571Z,8.60
2023-02-19T08:06:42.306Z,7.60
2023-02-19T08:09:09.544Z,8.80
2023-02-19T08:12:00.308Z,7.70
2023-02-19T08:14:28.886Z,9.10
2023-02-19T08:16:56.043Z,5.70
2023-02-19T08:19:23.955Z,10.10
2023-02-19T08:21:50.733Z,9.50
2023-02-19T08:24:20.097Z,10.00
2023-02-19T08:26:46.899Z,8.80
2023-02-19T08:29:13.706Z,13.40
2023-02-19T08:31:41.656Z,8.60
2023-02-19T08:34:09.007Z,8.60
2023-02-19T08:36:36.034Z,11.40
2023-02-19T08:39:03.310Z,10.60
2023-02-19T08:41:31.844Z,8.80
2023-02-19T08:43:58.755Z,5.20
2023-02-19T08:46:27.433Z,8.90
2023-02-19T08:48:54.320Z,9.40
2023-02-19T08:51:21.149Z,10.50
2023-02-19T08:53:48.682Z,9.30
2023-02-19T08:56:16.949Z,9.50
2023-02-19T08:58:43.936Z,8.70
2023-02-19T09:01:12.942Z,11.90
2023-02-19T09:03:41.292Z,10.50
2023-02-19T09:06:13.084Z,9.20
2023-02-19T09:08:42.263Z,8.50
2023-02-19T09:11:09.828Z,8.40
2023-02-19T09:13:36.930Z,9.20
2023-02-19T09:16:06.441Z,9.80
2023-02-19T09:18:34.952Z,9.80
2023-02-19T09:21:03.971Z,6.90
2023-02-19T09:23:34.018Z,8.10
2023-02-19T09:26:09.413Z,12.00
2023-02-19T09:28:39.104Z,11.00
2023-02-19T09:31:11.083Z,12.20
2023-02-19T09:33:44.566Z,9.30
2023-02-19T09:36:12.146Z,8.30
2023-02-19T09:38:40.114Z,10.70
2023-02-19T09:41:27.426Z,9.30
2023-02-19T09:43:54.512Z,10.50
2023-02-19T09:46:24.657Z,8.90
2023-02-19T09:48:53.622Z,12.20
2023-02-19T09:51:20.747Z,10.50
2023-02-19T09:53:51.719Z,11.10
2023-02-19T09:56:18.846Z,7.40
2023-02-19T09:58:48.473Z,8.50
2023-02-19T10:01:15.230Z,11.40
2023-02-19T10:03:46.496Z,9.00
2023-02-19T10:06:24.500Z,10.20
2023-02-19T10:08:54.870Z,15.40
2023-02-19T10:11:25.293Z,10.70
2023-02-19T10:14:01.361Z,9.60
2023-02-19T10:16:29.404Z,7.20
2023-02-19T10:18:56.522Z,8.00
2023-02-19T10:21:24.349Z,9.90
2023-02-19T10:23:56.049Z,6.70
2023-02-19T10:26:23.251Z,6.90
2023-02-19T10:28:50.046Z,9.00
2023-02-19T10:31:22.101Z,12.90
2023-02-19T10:33:57.279Z,11.90
2023-02-19T10:36:36.002Z,7.60
2023-02-19T10:39:21.636Z,6.70
2023-02-19T10:41:51.568Z,9.30
2023-02-19T10:44:29.536Z,9.10
2023-02-19T10:46:57.816Z,10.80
2023-02-19T10:49:29.899Z,8.80
2023-02-19T10:52:01.943Z,9.50
2023-02-19T10:54:34.224Z,8.10
2023-02-19T10:57:32.132Z,11.10
2023-02-19T11:00:18.965Z,5.90
2023-02-19T11:02:46.664Z,5.90
2023-02-19T11:05:19.452Z,7.50
2023-02-19T11:07:49.327Z,7.00
2023-02-19T11:10:26.806Z,6.40
2023-02-19T11:13:45.191Z,7.60
2023-02-19T11:16:12.005Z,8.30
2023-02-19T11:18:44.437Z,7.20
2023-02-19T11:21:32.376Z,8.20
2023-02-19T11:24:01.293Z,5.80
2023-02-19T11:26:31.857Z,5.10
2023-02-19T11:29:00.173Z,7.90
2023-02-19T11:31:31.011Z,6.30
2023-02-19T11:34:02.363Z,4.50
2023-02-19T11:36:31.559Z,3.40
2023-02-19T11:39:14.909Z,7.10
2023-02-19T11:41:49.161Z,5.60
2023-02-19T11:44:25.272Z,4.50
2023-02-19T11:47:25.917Z,6.40
2023-02-19T11:50:02.757Z,7.90
2023-02-19T11:52:35.843Z,11.60
2023-02-19T11:55:24.432Z,6.60
2023-02-19T11:57:54.709Z,7.40
2023-02-19T12:00:26.855Z,7.90
2023-02-19T12:03:26.434Z,4.50
2023-02-19T12:06:24.678Z,6.70
2023-02-19T12:09:10.047Z,6.50
2023-02-19T12:11:53.153Z,10.50
2023-02-19T12:14:23.007Z,9.40
2023-02-19T12:17:02.369Z,7.10
2023-02-19T12:19:49.734Z,12.60
2023-02-19T12:22:38.460Z,6.80
2023-02-19T12:25:25.784Z,6.60
2023-02-19T12:28:43.644Z,7.70
2023-02-19T12:31:41.818Z,10.30
2023-02-19T12:34:42.697Z,8.40
2023-02-19T12:37:31.851Z,8.20
2023-02-19T12:40:26.605Z,5.80
2023-02-19T12:43:00.824Z,6.90
2023-02-19T12:45:32.173Z,10.80
2023-02-19T12:48:39.164Z,6.50
2023-02-19T12:51:43.910Z,4.80
2023-02-19T12:54:19.340Z,7.40
2023-02-19T12:57:01.877Z,7.90
2023-02-19T12:59:30.233Z,7.10
2023-02-19T13:02:15.280Z,8.30
2023-02-19T13:05:02.182Z,8.40
2023-02-19T13:07:32.345Z,9.50
2023-02-19T13:10:06.307Z,4.70
2023-02-19T13:12:37.890Z,8.20
2023-02-19T13:15:21.330Z,5.50
2023-02-19T13:17:52.607Z,7.90
2023-02-19T13:20:31.646Z,8.90
2023-02-19T13:23:26.728Z,7.60
2023-02-19T13:26:09.054Z,6.50
2023-02-19T13:29:07.828Z,6.40
2023-02-19T13:31:51.880Z,8.60
2023-02-19T13:34:47.293Z,8.60
2023-02-19T13:37:14.390Z,7.50
2023-02-19T13:39:49.380Z,9.50
2023-02-19T13:42:32.441Z,8.30
2023-02-19T13:45:00.517Z,7.60
2023-02-19T13:47:56.816Z,6.40
2023-02-19T13:50:24.727Z,9.50
2023-02-19T13:52:53.685Z,7.50
2023-02-19T13:55:49.328Z,7.90
2023-02-19T13:58:39.379Z,5.80
2023-02-19T14:01:11.105Z,6.30
2023-02-19T14:03:50.107Z,5.90
2023-02-19T14:06:17.522Z,9.90
2023-02-19T14:08:59.644Z,7.70
2023-02-19T14:11:41.829Z,7.30
2023-02-19T14:14:22.604Z,6.20
2023-02-19T14:17:07.522Z,8.90
2023-02-19T14:19:49.880Z,6.70
2023-02-19T14:22:57.412Z,8.40
2023-02-19T14:25:46.417Z,5.80
2023-02-19T14:28:34.989Z,7.00
2023-02-19T14:31:43.519Z,10.70
2023-02-19T14:34:24.693Z,10.70
2023-02-19T14:36:53.786Z,8.40
2023-02-19T14:39:24.403Z,8.20
2023-02-19T14:42:02.359Z,6.40
2023-02-19T14:44:44.851Z,7.60
2023-02-19T14:47:16.895Z,8.60
2023-02-19T14:49:45.381Z,8.20
2023-02-19T14:52:24.254Z,8.60
2023-02-19T14:55:01.518Z,6.80
2023-02-19T14:57:29.792Z,9.40
2023-02-19T14:59:58.612Z,9.10
2023-02-19T15:02:26.755Z,11.20
2023-02-19T15:04:54.165Z,8.90
2023-02-19T15:07:29.105Z,10.00
2023-02-19T15:10:00.886Z,7.30
2023-02-19T15:12:40.330Z,9.30
2023-02-19T15:15:07.990Z,11.50
2023-02-19T15:17:35.975Z,9.60
2023-02-19T15:20:08.951Z,11.30
2023-02-19T15:22:36.001Z,9.90
2023-02-19T15:25:03.376Z,8.00
2023-02-19T15:27:30.469Z,11.90
2023-02-19T15:29:57.378Z,13.10
2023-02-19T15:32:26.091Z,13.60
2023-02-19T15:35:00.190Z,11.30
2023-02-19T15:37:32.158Z,13.60
2023-02-19T15:40:00.319Z,10.10
2023-02-19T15:42:29.269Z,7.70
2023-02-19T15:45:20.617Z,9.00
2023-02-19T15:47:53.316Z,8.20
2023-02-19T15:50:41.541Z,13.70
2023-02-19T15:53:13.106Z,11.10
2023-02-19T15:55:45.184Z,17.30
2023-02-19T15:58:27.304Z,10.80
2023-02-19T16:00:59.329Z,11.50
2023-02-19T16:03:26.681Z,10.80
2023-02-19T16:06:10.754Z,10.00
2023-02-19T16:09:01.234Z,11.10
2023-02-19T16:11:35.538Z,14.20
2023-02-19T16:14:18.383Z,15.00
2023-02-19T16:16:46.199Z,14.20
2023-02-19T16:19:12.960Z,15.10
2023-02-19T16:21:42.568Z,13.90
2023-02-19T16:24:15.965Z,15.70
2023-02-19T16:26:44.993Z,13.20
2023-02-19T16:29:31.301Z,14.10
2023-02-19T16:32:02.764Z,11.20
2023-02-19T16:34:42.694Z,13.40
2023-02-19T16:37:48.706Z,13.60
2023-02-19T16:40:16.841Z,11.60
2023-02-19T16:42:50.165Z,10.20
2023-02-19T16:45:17.444Z,15.30
2023-02-19T16:47:50.808Z,12.40
2023-02-19T16:50:20.201Z,13.60
2023-02-19T16:52:52.048Z,14.60
2023-02-19T16:55:18.927Z,14.80
2023-02-19T16:57:45.813Z,15.30
2023-02-19T17:00:29.078Z,14.30
2023-02-19T17:02:57.946Z,14.10
2023-02-19T17:05:26.229Z,14.20
2023-02-19T17:07:52.920Z,12.00
2023-02-19T17:10:25.484Z,16.10
2023-02-19T17:12:53.418Z,14.20
2023-02-19T17:15:22.108Z,11.70
2023-02-19T17:17:48.846Z,11.80
2023-02-19T17:20:27.138Z,13.10
2023-02-19T17:22:55.258Z,10.70
2023-02-19T17:25:22.388Z,9.10
2023-02-19T17:27:49.121Z,7.70
2023-02-19T17:30:31.332Z,8.20
2023-02-19T17:32:58.796Z,9.70
2023-02-19T17:35:25.738Z,8.20
2023-02-19T17:37:53.475Z,9.20
2023-02-19T17:40:32.765Z,8.90
2023-02-19T17:43:01.017Z,9.90
2023-02-19T17:45:27.882Z,10.80
2023-02-19T17:47:54.765Z,11.90
2023-02-19T17:50:27.655Z,15.20
2023-02-19T17:52:54.739Z,11.90
2023-02-19T17:55:22.006Z,15.70
2023-02-19T17:57:49.719Z,12.70
2023-02-19T18:00:22.054Z,16.30
2023-02-19T18:02:48.972Z,13.60
2023-02-19T18:05:16.021Z,12.60
2023-02-19T18:07:47.476Z,11.20
2023-02-19T18:10:16.673Z,9.70
2023-02-19T18:12:44.133Z,15.30
2023-02-19T18:15:16.111Z,9.10
2023-02-19T18:17:43.255Z,11.80
2023-02-19T18:20:14.124Z,8.70
2023-02-19T18:22:42.071Z,8.50
2023-02-19T18:25:10.033Z,3.80
2023-02-19T18:27:36.995Z,7.30
2023-02-19T18:30:04.482Z,5.60
2023-02-19T18:32:31.397Z,3.70
2023-02-19T18:34:59.449Z,6.10
2023-02-19T18:37:26.706Z,7.60
2023-02-19T18:39:53.798Z,6.00
2023-02-19T18:42:22.043Z,6.10
2023-02-19T18:44:49.501Z,7.30
2023-02-19T18:47:16.677Z,5.60
2023-02-19T18:49:50.638Z,5.70
2023-02-19T18:52:19.751Z,3.30
2023-02-19T18:54:47.402Z,6.50
2023-02-19T18:57:14.715Z,5.10
2023-02-19T18:59:42.539Z,6.00
2023-02-19T19:02:09.826Z,4.20
2023-02-19T19:04:37.815Z,5.00
2023-02-19T19:07:05.384Z,5.30
2023-02-19T19:09:34.594Z,3.70
2023-02-19T19:12:01.767Z,4.50
2023-02-19T19:14:28.527Z,7.20
2023-02-19T19:16:55.985Z,8.00
2023-02-19T19:19:23.174Z,4.00
2023-02-19T19:21:54.809Z,6.60
2023-02-19T19:24:22.538Z,7.50
2023-02-19T19:26:49.940Z,4.70
2023-02-19T19:29:17.984Z,5.40
2023-02-19T19:31:45.482Z,4.30
2023-02-19T19:34:12.606Z,5.80
2023-02-19T19:36:39.420Z,7.50
2023-02-19T19:39:06.819Z,5.50
2023-02-19T19:41:34.387Z,4.50
2023-02-19T19:44:03.699Z,2.70
2023-02-19T19:46:32.376Z,5.70
2023-02-19T19:48:59.964Z,5.10
2023-02-19T19:54:45.006Z,4.60
2023-02-19T19:57:12.556Z,6.20
2023-02-19T19:59:39.724Z,5.30
2023-02-19T20:02:07.170Z,3.90
2023-02-19T20:04:34.008Z,4.00
2023-02-19T20:07:03.934Z,3.20
2023-02-19T20:09:33.187Z,4.90
2023-02-19T20:12:00.293Z,6.20
2023-02-19T20:14:27.443Z,3.70
2023-02-19T20:16:59.596Z,4.30
2023-02-19T20:19:26.548Z,6.60
2023-02-19T20:21:53.591Z,3.30
2023-02-19T20:24:25.560Z,5.10
2023-02-19T20:26:59.108Z,5.00
2023-02-19T20:29:28.260Z,2.80
2023-02-19T20:31:55.420Z,2.60
2023-02-19T20:34:23.222Z,2.60
2023-02-19T20:36:50.451Z,4.90
2023-02-19T20:39:18.607Z,5.20
2023-02-19T20:41:46.749Z,4.20
2023-02-19T20:44:13.851Z,4.30
2023-02-19T20:46:45.012Z,3.70
2023-02-19T20:49:12.705Z,3.80
2023-02-19T20:51:46.906Z,2.80
2023-02-19T20:54:14.143Z,3.90
2023-02-19T20:56:48.771Z,6.30
2023-02-19T20:59:16.327Z,5.10
2023-02-19T21:01:43.779Z,5.70
2023-02-19T21:04:11.632Z,5.30
2023-02-19T21:06:42.963Z,3.90
2023-02-19T21:09:11.150Z,3.50
2023-02-19T21:11:38.670Z,3.00
2023-02-19T21:14:05.962Z,2.60
2023-02-19T21:16:33.417Z,3.80
2023-02-19T21:19:04.589Z,2.30
2023-02-19T21:21:33.935Z,3.70
2023-02-19T21:24:01.121Z,5.10
2023-02-19T21:26:35.315Z,2.90
2023-02-19T21:29:03.365Z,3.20
2023-02-19T21:31:35.876Z,3.00
2023-02-19T21:34:04.631Z,6.80
2023-02-19T21:36:31.932Z,3.80
2023-02-19T21:38:58.778Z,7.40
2023-02-19T21:41:27.242Z,6.40
2023-02-19T21:43:54.584Z,6.90
2023-02-19T21:46:21.866Z,6.00
2023-02-19T21:48:52.937Z,3.60
2023-02-19T21:51:20.593Z,3.70
2023-02-19T21:53:47.526Z,6.60
2023-02-19T21:56:24.426Z,3.30
2023-02-19T21:58:51.876Z,4.00
2023-02-19T22:01:27.707Z,4.70
2023-02-19T22:03:54.762Z,4.90
2023-02-19T22:06:26.946Z,3.40
2023-02-19T22:08:58.488Z,7.40
2023-02-19T22:11:25.439Z,2.80
2023-02-19T22:13:52.111Z,3.90
2023-02-19T22:16:18.852Z,3.50
2023-02-19T22:18:49.868Z,5.40
2023-02-19T22:21:16.922Z,5.70
2023-02-19T22:23:46.421Z,5.40
2023-02-19T22:26:18.272Z,3.20
2023-02-19T22:28:47.135Z,5.70
2023-02-19T22:31:18.988Z,3.80
2023-02-19T22:33:45.757Z,4.70
2023-02-19T22:36:17.449Z,5.70
2023-02-19T22:39:05.596Z,4.70
2023-02-19T22:41:32.775Z,6.50
2023-02-19T22:43:59.731Z,5.10
2023-02-19T22:46:28.971Z,7.50
2023-02-19T22:48:56.153Z,6.10
2023-02-19T22:51:23.585Z,5.70
2023-02-19T22:53:54.965Z,7.50
2023-02-19T22:56:23.526Z,5.40
2023-02-19T22:58:54.554Z,4.60
2023-02-19T23:01:21.317Z,6.70
2023-02-19T23:03:56.165Z,8.10
2023-02-19T23:06:33.025Z,6.50
2023-02-19T23:09:09.727Z,6.10
2023-02-19T23:11:43.580Z,4.70
2023-02-19T23:14:11.438Z,6.40
2023-02-19T23:16:39.802Z,5.70
2023-02-19T23:19:10.708Z,5.50
2023-02-19T23:21:39.576Z,4.70
2023-02-19T23:24:07.193Z,4.40
2023-02-19T23:26:35.572Z,4.80
2023-02-19T23:29:02.625Z,5.70
2023-02-19T23:31:30.328Z,6.30
2023-02-19T23:33:57.140Z,7.50
2023-02-19T23:36:24.140Z,5.00
2023-02-19T23:38:51.009Z,6.90
2023-02-19T23:41:18.023Z,7.60
2023-02-19T23:43:44.786Z,3.10
2023-02-19T23:46:16.989Z,2.70
2023-02-19T23:48:45.544Z,3.80
2023-02-19T23:51:12.852Z,4.20
2023-02-19T23:53:40.123Z,3.80
2023-02-19T23:56:07.104Z,7.00
2023-02-19T23:58:35.223Z,3.90
